Latest Coastal Weather Observations for Low Head

IDT60701

Issued at 7:51 am EST Wednesday 1 June 2016 (issued every 10 minutes, with the page automatically refreshed every 10 minutes)

About coastal observations | Map of coastal stations | Coastal observations for TAS | Marine services | Other Formats
Station Details ID: 091293 Name: LOW HEAD Lat: -41.05 Lon: 146.79 Height: 3.0 m
Data from the previous 72 hours. | See also: Recent months at Low Head
Date/Time
EST
Temp

°C
Wind Pressure Rain
since 9am
mm
Weather Cloud Vis
km
Sea
Height
m
Swell
Dir
 
Speed
knots
Gust
knots
hPa Trend Height
m
Period
s
Dir
01/07:30am 4.3 SSE 15 18 1031.8 - 0.0 - - - - - - -
01/07:00am 4.5 SSE 15 19 1031.6 - 0.0 - - - - - - -
01/06:30am 4.6 SSE 16 20 1031.5 - 0.0 - - - - - - -
01/06:00am 4.8 SSE 15 19 1031.4 - 0.0 - - - - - - -
01/05:30am 5.0 SSE 16 19 1031.2 - 0.0 - - - - - - -
01/05:00am 5.0 SSE 15 18 1031.2 - 0.0 - - - - - - -
01/04:30am 5.3 SSE 15 18 1031.2 - 0.0 - - - - - - -
01/04:00am 5.4 SSE 14 17 1031.2 - 0.0 - - - - - - -
01/03:30am 5.5 SSE 14 17 1031.3 - 0.0 - - - - - - -
01/03:00am 5.8 SSE 13 16 1031.5 - 0.0 - - - - - - -
01/02:30am 6.2 SSE 12 15 1031.8 - 0.0 - - - - - - -
01/02:00am 6.6 SSE 12 15 1031.9 - 0.0 - - - - - - -
01/01:30am 6.2 SSE 11 14 1031.8 - 0.0 - - - - - - -
01/01:00am 6.5 SSE 10 13 1031.9 - 0.0 - - - - - - -
01/12:30am 6.6 SSE 11 13 1032.0 - 0.0 - - - - - - -
01/12:00am 6.8 SSE 12 15 1032.2 - 0.0 - - - - - - -
 
Date/Time
EST
Temp

°C
Wind Pressure Rain
since 9am
mm
Weather Cloud Vis
km
Sea
Height
m
Swell
Dir
 
Speed
knots
Gust
knots
hPa Trend Height
m
Period
s
Dir
31/11:30pm 6.9 SSE 11 14 1032.4 - 0.0 - - - - - - -
31/11:00pm 7.3 SSE 11 13 1032.5 - 0.0 - - - - - - -
31/10:30pm 7.4 SSE 11 13 1032.4 - 0.0 - - - - - - -
31/10:00pm 8.0 SSE 11 12 1032.5 - 0.0 - - - - - - -
31/09:30pm 8.0 SSE 10 11 1032.5 - 0.0 - - - - - - -
31/09:00pm 8.3 SSE 10 12 1032.5 - 0.0 - - - - - - -
31/08:30pm 8.4 SSE 10 12 1032.4 - 0.0 - - - - - - -
31/08:00pm 8.5 SSE 11 13 1032.2 - 0.0 - - - - - - -
31/07:30pm 8.8 SSE 11 13 1032.1 - 0.0 - - - - - - -
31/07:00pm 9.4 SSE 10 11 1032.1 - 0.0 - - - - - - -
31/06:30pm 9.6 SSE 9 11 1032.0 - 0.0 - - - - - - -
31/06:00pm 9.8 SSE 8 9 1031.7 - 0.0 - - - - - - -
31/05:30pm 9.9 SSE 8 9 1031.4 - 0.0 - - - - - - -
31/05:00pm 10.5 SSE 8 9 1031.3 - 0.0 - - - - - - -
31/04:30pm 11.2 SSE 7 9 1031.3 - 0.0 - - - - - - -
31/04:00pm 12.1 SSE 6 9 1031.1 - 0.0 - - - - - - -
31/03:30pm 12.5 SSE 7 9 1031.1 - 0.0 - - - - - - -
31/03:00pm 12.8 SSE 10 13 1031.0 - 0.0 - - - - - - -
31/02:30pm 12.5 SSE 11 13 1031.0 - 0.0 - - - - - - -
31/02:00pm 12.2 SSE 11 14 1031.2 - 0.0 - - - - - - -
31/01:30pm 11.9 SSE 12 14 1031.4 - 0.0 - - - - - - -
31/01:00pm 11.2 SSE 13 15 1031.7 - 0.0 - - - - - - -
31/12:30pm 10.6 SSE 13 16 1032.0 - 0.0 - - - - - - -
31/12:00pm 9.6 SSE 13 18 1032.4 - 0.0 - - - - - - -
31/11:30am 8.9 SSE 15 20 1032.8 - 0.0 - - - - - - -
31/11:00am 8.0 SSE 15 19 1033.3 - 0.0 - - - - - - -
31/10:30am 7.5 SSE 15 21 1033.4 - 0.0 - - - - - - -
31/10:00am 7.2 SSE 17 21 1033.3 - 0.0 - - - - - - -
31/09:30am 6.7 SSE 17 21 1033.1 - 0.0 - - - - - - -
31/09:00am 6.0 SSE 18 22 1033.0 - 0.0 - - - - - - -
31/08:30am 6.0 SSE 16 21 1032.9 - 0.0 - - - - - - -
31/08:00am 5.8 SSE 16 19 1032.6 - 0.0 - - - - - - -
31/07:30am 6.0 SSE 16 19 1032.3 - 0.0 - - - - - - -
31/07:00am 6.2 SSE 16 19 1032.1 - 0.0 - - - - - - -
31/06:30am 6.1 SSE 16 19 1032.0 - 0.0 - - - - - - -
31/06:00am 6.4 SSE 17 19 1031.7 - 0.0 - - - - - - -
31/05:30am 6.1 SSE 15 19 1031.6 - 0.0 - - - - - - -
31/05:00am 6.0 SSE 15 18 1031.6 - 0.0 - - - - - - -
31/04:30am 6.0 SSE 15 18 1031.3 - 0.0 - - - - - - -
31/04:00am 6.2 SSE 15 18 1031.2 - 0.0 - - - - - - -
31/03:30am 6.4 SSE 15 19 1031.1 - 0.0 - - - - - - -
31/03:00am 6.2 SSE 14 17 1031.0 - 0.0 - - - - - - -
31/02:30am 6.2 SSE 13 17 1031.0 - 0.0 - - - - - - -
31/02:00am 6.2 SSE 13 15 1030.9 - 0.0 - - - - - - -
31/01:30am 6.6 SSE 12 15 1030.9 - 0.0 - - - - - - -
31/01:00am 6.5 SSE 12 14 1031.0 - 0.0 - - - - - - -
31/12:30am 6.6 SSE 12 15 1031.0 - 0.0 - - - - - - -
31/12:00am 7.0 SSE 12 14 1031.1 - 0.0 - - - - - - -
 
Date/Time
EST
Temp

°C
Wind Pressure Rain
since 9am
mm
Weather Cloud Vis
km
Sea
Height
m
Swell
Dir
 
Speed
knots
Gust
knots
hPa Trend Height
m
Period
s
Dir
30/11:30pm 7.2 SSE 10 13 1031.0 - 0.0 - - - - - - -
30/11:00pm 7.1 SSE 10 12 1030.9 - 0.0 - - - - - - -
30/10:30pm 7.5 SSE 10 12 1030.7 - 0.0 - - - - - - -
30/10:00pm 8.0 SSE 9 9 1030.5 - 0.0 - - - - - - -
30/09:30pm 7.4 SSE 8 9 1030.5 - 0.0 - - - - - - -
30/09:00pm 7.9 SE 9 12 1030.4 - 0.0 - - - - - - -
30/08:30pm 8.6 SSE 8 9 1030.0 - 0.0 - - - - - - -
30/08:00pm 9.0 SSE 9 10 1029.7 - 0.0 - - - - - - -
30/07:30pm 9.2 SSE 8 9 1029.6 - 0.0 - - - - - - -
30/07:00pm 10.2 SSE 5 7 1029.4 - 0.0 - - - - - - -
30/06:30pm 10.6 S 5 6 1029.1 - 0.0 - - - - - - -
30/06:00pm 11.5 E 7 7 1028.8 - 0.0 - - - - - - -
30/05:30pm 11.3 ESE 5 6 1028.5 - 0.0 - - - - - - -
30/05:00pm 11.1 SE 6 6 1028.1 - 0.0 - - - - - - -
30/04:30pm 12.6 ENE 5 6 1027.9 - 0.0 - - - - - - -
30/04:00pm 12.8 NNE 5 6 1027.6 - 0.0 - - - - - - -
30/03:30pm 12.9 NNE 6 8 1027.4 - 0.0 - - - - - - -
30/03:00pm 13.1 NE 5 6 1027.3 - 0.0 - - - - - - -
30/02:30pm 13.4 ENE 5 6 1027.0 - 0.0 - - - - - - -
30/02:00pm 12.7 S 4 6 1026.9 - 0.0 - - - - - - -
30/01:30pm 12.6 S 6 8 1026.8 - 0.0 - - - - - - -
30/01:00pm 12.2 S 8 10 1027.0 - 0.0 - - - - - - -
30/12:30pm 11.5 S 10 12 1027.1 - 0.0 - - - - - - -
30/12:00pm 11.5 SSE 9 12 1027.2 - 0.0 - - - - - - -
30/11:30am 11.2 SSE 12 15 1027.4 - 0.0 - - - - - - -
30/11:00am 10.2 SSE 13 17 1027.6 - 0.0 - - - - - - -
30/10:30am 9.8 SSE 13 18 1027.6 - 0.0 - - - - - - -
30/10:00am 9.1 SSE 11 15 1027.3 - 0.0 - - - - - - -
30/09:30am 8.1 SSE 12 16 1026.9 - 0.0 - - - - - - -
30/09:00am 7.6 SSE 13 16 1026.6 - 0.0 - - - - - - -
30/08:30am 7.1 SSE 13 17 1026.3 - 0.0 - - - - - - -
30/08:00am 6.8 SSE 13 17 1025.9 - 0.0 - - - - - - -
30/07:30am 6.8 SSE 13 16 1025.6 - 0.0 - - - - - - -
30/07:00am 6.9 SSE 12 15 1025.3 - 0.0 - - - - - - -
30/06:30am 6.8 SSE 11 15 1024.9 - 0.0 - - - - - - -
30/06:00am 6.8 SSE 13 15 1024.4 - 0.0 - - - - - - -
30/05:30am 6.9 SSE 12 15 1024.3 - 0.0 - - - - - - -
30/05:00am 6.8 SSE 12 15 1023.8 - 0.0 - - - - - - -
30/04:30am 7.0 SSE 13 17 1023.5 - 0.0 - - - - - - -
30/04:00am 7.1 SSE 12 15 1023.3 - 0.0 - - - - - - -
30/03:30am 7.3 SSE 12 16 1023.2 - 0.0 - - - - - - -
30/03:00am 7.6 SSE 12 16 1023.1 - 0.0 - - - - - - -
30/02:30am 7.9 SSE 13 16 1023.0 - 0.0 - - - - - - -
30/02:00am 7.7 SSE 11 14 1022.8 - 0.0 - - - - - - -
30/01:30am 7.9 SSE 10 14 1022.4 - 0.0 - - - - - - -
30/01:00am 7.7 SSE 10 12 1022.2 - 0.0 - - - - - - -
30/12:30am 7.6 SSE 9 12 1022.2 - 0.0 - - - - - - -
30/12:00am 7.5 SSE 7 9 1022.1 - 0.0 - - - - - - -
 
Date/Time
EST
Temp

°C
Wind Pressure Rain
since 9am
mm
Weather Cloud Vis
km
Sea
Height
m
Swell
Dir
 
Speed
knots
Gust
knots
hPa Trend Height
m
Period
s
Dir
29/11:30pm 7.9 SSE 7 10 1021.8 - 0.0 - - - - - - -
29/11:00pm 8.3 SSE 10 11 1021.4 - 0.0 - - - - - - -
29/10:30pm 9.0 SSE 10 12 1021.1 - 0.0 - - - - - - -
29/10:00pm 9.0 SSE 9 11 1020.9 - 0.0 - - - - - - -
29/09:30pm 8.9 S 9 11 1020.7 - 0.0 - - - - - - -
29/09:00pm 8.7 S 7 8 1020.5 - 0.0 - - - - - - -
29/08:30pm 9.3 S 7 8 1020.3 - 0.0 - - - - - - -
29/08:00pm 9.0 SSE 6 7 1020.2 - 0.0 - - - - - - -
29/07:30pm 9.8 SSE 6 7 1019.6 - 0.0 - - - - - - -
29/07:00pm 11.3 SE 3 5 1019.0 - 0.0 - - - - - - -
29/06:30pm 11.3 ESE 5 5 1018.6 - 0.0 - - - - - - -
29/06:00pm 11.7 ESE 6 7 1018.2 - 0.0 - - - - - - -
29/05:30pm 12.1 CALM 0 0 1017.7 - 0.0 - - - - - - -
29/05:00pm 12.6 WNW 3 4 1017.3 - 0.0 - - - - - - -
29/04:30pm 13.5 CALM 0 0 1017.1 - 0.0 - - - - - - -
29/04:00pm 13.8 NNE 1 3 1016.8 - 0.0 - - - - - - -
29/03:30pm 13.4 S 3 4 1016.5 - 0.0 - - - - - - -
29/03:00pm 13.2 SE 4 5 1016.2 - 0.0 - - - - - - -
29/02:30pm 13.1 SSE 6 8 1016.0 - 0.0 - - - - - - -
29/02:00pm 12.8 S 5 7 1015.7 - 0.0 - - - - - - -
29/01:30pm 13.1 S 6 8 1015.4 - 0.0 - - - - - - -
29/01:00pm 12.7 SSW 5 6 1015.2 - 0.0 - - - - - - -
29/12:30pm 12.2 S 5 6 1015.2 - 0.0 - - - - - - -
29/12:00pm 11.6 S 6 7 1015.3 - 0.0 - - - - - - -
29/11:30am 10.8 S 6 7 1015.3 - 0.0 - - - - - - -
29/11:00am 9.3 SSE 8 10 1015.5 - 0.0 - - - - - - -
29/10:30am 8.5 S 8 10 1015.4 - 0.0 - - - - - - -
29/10:00am 7.5 SSE 9 11 1015.0 - 0.0 - - - - - - -
29/09:30am 7.7 S 7 9 1014.8 - 0.0 - - - - - - -
29/09:00am 6.4 SSE 8 11 1014.6 - 0.2 - - - - - - -
29/08:30am 5.6 SSE 8 11 1014.3 - 0.2 - - - - - - -
29/08:00am 5.7 SSE 9 11 1013.9 - 0.2 - - - - - - -

Other Formats:

Comma delimited format used in spreadsheet applications
http://www.bom.gov.au/fwo/IDT60701/IDT60701.95964.axf

JavaScript Object Notation format (JSON) in row-major order
http://www.bom.gov.au/fwo/IDT60701/IDT60701.95964.json